createdAt,value
2023-01-21T00:01:15.070Z,34.20
2023-01-21T00:03:43.353Z,34.70
2023-01-21T00:06:11.956Z,33.30
2023-01-21T00:08:39.845Z,34.13
2023-01-21T00:11:10.358Z,32.23
2023-01-21T00:13:38.396Z,33.27
2023-01-21T00:16:07.164Z,36.07
2023-01-21T00:18:35.863Z,36.13
2023-01-21T00:21:04.320Z,35.07
2023-01-21T00:23:32.237Z,35.27
2023-01-21T00:26:00.971Z,34.63
2023-01-21T00:28:31.232Z,33.83
2023-01-21T00:30:59.799Z,35.03
2023-01-21T00:33:27.860Z,33.07
2023-01-21T00:36:00.427Z,32.43
2023-01-21T00:38:28.456Z,35.57
2023-01-21T00:41:01.135Z,34.00
2023-01-21T00:43:30.878Z,33.23
2023-01-21T00:45:59.433Z,35.60
2023-01-21T00:48:28.429Z,31.27
2023-01-21T00:51:00.534Z,36.93
2023-01-21T00:53:29.355Z,33.17
2023-01-21T00:56:01.121Z,34.97
2023-01-21T00:58:31.649Z,33.53
2023-01-21T01:01:04.704Z,35.03
2023-01-21T01:03:33.213Z,34.17
2023-01-21T01:06:05.228Z,32.93
2023-01-21T01:08:34.059Z,34.87
2023-01-21T01:11:02.319Z,33.67
2023-01-21T01:13:32.458Z,34.57
2023-01-21T01:16:00.501Z,37.53
2023-01-21T01:18:30.164Z,34.73
2023-01-21T01:20:58.200Z,32.67
2023-01-21T01:23:26.400Z,36.53
2023-01-21T01:25:59.138Z,34.47
2023-01-21T01:28:27.099Z,30.77
2023-01-21T01:30:57.479Z,35.20
2023-01-21T01:33:25.668Z,35.00
2023-01-21T01:35:53.948Z,35.53
2023-01-21T01:38:23.786Z,36.43
2023-01-21T01:40:53.214Z,36.73
2023-01-21T01:43:24.160Z,36.33
2023-01-21T01:45:52.966Z,36.10
2023-01-21T01:48:25.954Z,33.80
2023-01-21T01:50:56.132Z,34.10
2023-01-21T01:53:26.150Z,33.27
2023-01-21T01:55:54.769Z,33.23
2023-01-21T01:58:23.967Z,35.20
2023-01-21T02:00:51.940Z,35.50
2023-01-21T02:03:37.138Z,36.33
2023-01-21T02:06:07.028Z,35.83
2023-01-21T02:08:36.292Z,34.03
2023-01-21T02:11:08.195Z,34.27
2023-01-21T02:13:36.084Z,36.13
2023-01-21T02:16:19.766Z,33.10
2023-01-21T02:18:53.765Z,32.13
2023-01-21T02:21:53.579Z,36.20
2023-01-21T02:24:45.389Z,32.53
2023-01-21T02:27:46.827Z,33.70
2023-01-21T02:30:50.772Z,33.87
2023-01-21T02:33:34.141Z,34.97
2023-01-21T02:36:13.043Z,35.40
2023-01-21T02:38:48.009Z,38.30
2023-01-21T02:41:29.615Z,33.43
2023-01-21T02:44:07.942Z,36.87
2023-01-21T02:46:44.016Z,37.47
2023-01-21T02:49:20.294Z,34.83
2023-01-21T02:51:48.936Z,36.37
2023-01-21T02:54:37.459Z,35.33
2023-01-21T02:57:06.169Z,33.80
2023-01-21T02:59:35.975Z,36.00
2023-01-21T03:02:14.764Z,31.37
2023-01-21T03:04:58.006Z,34.07
2023-01-21T03:07:34.007Z,33.37
2023-01-21T03:10:08.083Z,33.43
2023-01-21T03:12:44.422Z,34.87
2023-01-21T03:15:35.847Z,34.03
2023-01-21T03:18:09.515Z,32.37
2023-01-21T03:20:42.229Z,33.33
2023-01-21T03:23:14.210Z,36.07
2023-01-21T03:25:42.946Z,36.10
2023-01-21T03:28:15.721Z,35.33
2023-01-21T03:30:49.263Z,33.10
2023-01-21T03:33:20.035Z,33.30
2023-01-21T03:35:54.103Z,36.13
2023-01-21T03:38:31.508Z,36.83
2023-01-21T03:41:03.861Z,34.17
2023-01-21T03:43:32.244Z,35.23
2023-01-21T03:46:05.696Z,35.20
2023-01-21T03:48:41.265Z,35.67
2023-01-21T03:51:14.718Z,31.87
2023-01-21T03:53:43.420Z,38.07
2023-01-21T03:56:11.405Z,33.40
2023-01-21T03:58:39.312Z,38.70
2023-01-21T04:01:07.587Z,34.67
2023-01-21T04:03:35.491Z,35.83
2023-01-21T04:06:03.473Z,35.73
2023-01-21T04:08:32.835Z,34.60
2023-01-21T04:11:00.690Z,34.30
2023-01-21T04:13:28.704Z,36.57
2023-01-21T04:15:56.551Z,37.63
2023-01-21T04:18:24.495Z,41.10
2023-01-21T04:20:52.452Z,36.00
2023-01-21T04:23:20.447Z,37.70
2023-01-21T04:25:50.205Z,39.73
2023-01-21T04:28:18.348Z,35.10
2023-01-21T04:30:48.578Z,36.03
2023-01-21T04:33:17.274Z,38.03
2023-01-21T04:35:45.163Z,38.07
2023-01-21T04:38:13.866Z,38.53
2023-01-21T04:40:41.844Z,35.50
2023-01-21T04:43:11.094Z,37.40
2023-01-21T04:45:38.958Z,37.27
2023-01-21T04:48:07.634Z,37.57
2023-01-21T04:50:35.999Z,37.33
2023-01-21T04:53:03.886Z,34.17
2023-01-21T04:55:31.694Z,36.00
2023-01-21T04:57:59.661Z,35.93
2023-01-21T05:00:29.040Z,33.63
2023-01-21T05:02:56.961Z,35.50
2023-01-21T05:05:24.850Z,37.00
2023-01-21T05:07:53.611Z,37.17
2023-01-21T05:10:21.536Z,34.53
2023-01-21T05:12:49.446Z,39.50
2023-01-21T05:15:17.512Z,37.50
2023-01-21T05:17:47.056Z,36.33
2023-01-21T05:20:15.134Z,38.80
2023-01-21T05:22:43.187Z,36.73
2023-01-21T05:25:11.180Z,40.40
2023-01-21T05:27:39.051Z,36.93
2023-01-21T05:30:08.491Z,35.87
2023-01-21T05:32:36.995Z,37.17
2023-01-21T05:35:06.780Z,38.00
2023-01-21T05:37:34.600Z,36.43
2023-01-21T05:40:02.555Z,37.00
2023-01-21T05:42:30.388Z,36.03
2023-01-21T05:44:58.501Z,38.00
2023-01-21T05:47:26.418Z,38.20
2023-01-21T05:49:54.298Z,36.90
2023-01-21T05:52:23.638Z,40.43
2023-01-21T05:55:01.314Z,36.80
2023-01-21T05:57:30.095Z,37.13
2023-01-21T05:59:58.013Z,37.17
2023-01-21T06:02:26.184Z,37.10
2023-01-21T06:04:54.099Z,35.77
2023-01-21T06:07:23.437Z,35.57
2023-01-21T06:09:51.297Z,36.93
2023-01-21T06:12:19.163Z,33.67
2023-01-21T06:14:47.115Z,32.83
2023-01-21T06:17:15.044Z,42.37
2023-01-21T06:19:42.962Z,36.83
2023-01-21T06:22:15.692Z,35.83
2023-01-21T06:24:45.379Z,38.40
2023-01-21T06:27:13.570Z,32.80
2023-01-21T06:29:41.491Z,35.10
2023-01-21T06:32:09.372Z,38.87
2023-01-21T06:34:37.260Z,37.00
2023-01-21T06:37:05.150Z,31.57
2023-01-21T06:39:33.092Z,33.87
2023-01-21T06:42:02.405Z,36.27
2023-01-21T06:44:30.417Z,37.80
2023-01-21T06:47:01.990Z,36.10
2023-01-21T06:49:30.251Z,34.13
2023-01-21T06:51:58.134Z,36.60
2023-01-21T06:54:27.135Z,35.77
2023-01-21T06:56:56.826Z,35.33
2023-01-21T06:59:26.232Z,35.80
2023-01-21T07:01:55.123Z,32.97
2023-01-21T07:04:23.235Z,38.20
2023-01-21T07:06:51.028Z,37.77
2023-01-21T07:09:19.095Z,35.73
2023-01-21T07:11:46.904Z,36.77
2023-01-21T07:14:14.901Z,35.97
2023-01-21T07:16:44.327Z,39.43
2023-01-21T07:19:16.672Z,37.07
2023-01-21T07:21:44.577Z,37.07
2023-01-21T07:24:12.469Z,36.03
2023-01-21T07:26:41.555Z,36.07
2023-01-21T07:29:09.811Z,33.37
2023-01-21T07:31:37.954Z,38.53
2023-01-21T07:34:07.792Z,36.67
2023-01-21T07:36:35.718Z,34.67
2023-01-21T07:39:03.609Z,35.53
2023-01-21T07:41:31.617Z,40.23
2023-01-21T07:43:59.563Z,39.40
2023-01-21T07:46:27.910Z,40.03
2023-01-21T07:48:55.816Z,39.47
2023-01-21T07:51:25.199Z,37.93
2023-01-21T07:53:53.151Z,39.40
2023-01-21T07:56:21.104Z,39.83
2023-01-21T07:58:49.152Z,40.23
2023-01-21T08:01:17.203Z,38.33
2023-01-21T08:03:45.415Z,39.47
2023-01-21T08:06:13.375Z,41.50
2023-01-21T08:08:42.735Z,38.33
2023-01-21T08:11:10.839Z,40.17
2023-01-21T08:13:38.760Z,38.53
2023-01-21T08:16:07.881Z,41.10
2023-01-21T08:18:35.872Z,42.77
2023-01-21T08:21:03.934Z,39.87
2023-01-21T08:23:32.096Z,49.23
2023-01-21T08:26:05.604Z,48.13
2023-01-21T08:28:33.756Z,43.57
2023-01-21T08:31:07.302Z,48.53
2023-01-21T08:33:35.981Z,44.80
2023-01-21T08:36:06.124Z,46.27
2023-01-21T08:38:34.303Z,45.63
2023-01-21T08:41:02.404Z,48.00
2023-01-21T08:43:31.734Z,47.80
2023-01-21T08:46:01.740Z,48.77
2023-01-21T08:48:30.976Z,47.10
2023-01-21T08:51:00.736Z,46.50
2023-01-21T08:53:30.541Z,53.63
2023-01-21T08:56:00.653Z,50.53
2023-01-21T08:58:28.677Z,48.90
2023-01-21T09:00:58.290Z,48.77
2023-01-21T09:03:26.281Z,47.77
2023-01-21T09:05:55.719Z,53.37
2023-01-21T09:08:23.843Z,46.97
2023-01-21T09:11:03.796Z,48.00
2023-01-21T09:13:33.978Z,53.73
2023-01-21T09:16:03.410Z,50.23
2023-01-21T09:18:31.412Z,51.30
2023-01-21T09:21:02.903Z,49.07
2023-01-21T09:23:34.127Z,47.27
2023-01-21T09:26:04.283Z,48.53
2023-01-21T09:28:33.526Z,51.50
2023-01-21T09:31:05.212Z,51.77
2023-01-21T09:33:35.292Z,49.03
2023-01-21T09:36:04.831Z,42.40
2023-01-21T09:38:33.290Z,47.87
2023-01-21T09:41:13.439Z,50.40
2023-01-21T09:43:46.801Z,47.83
2023-01-21T09:46:21.842Z,49.50
2023-01-21T09:48:50.728Z,47.80
2023-01-21T09:51:22.208Z,48.37
2023-01-21T09:53:53.006Z,45.27
2023-01-21T09:56:28.625Z,50.33
2023-01-21T09:59:04.976Z,52.80
2023-01-21T10:01:37.939Z,50.57
2023-01-21T10:04:28.976Z,46.47
2023-01-21T10:07:00.844Z,52.07
2023-01-21T10:09:42.023Z,50.10
2023-01-21T10:12:24.925Z,52.93
2023-01-21T10:15:06.980Z,48.00
2023-01-21T10:17:47.656Z,50.33
2023-01-21T10:20:22.119Z,49.63
2023-01-21T10:22:55.681Z,51.73
2023-01-21T10:25:29.005Z,50.57
2023-01-21T10:27:59.860Z,50.23
2023-01-21T10:30:33.287Z,51.40
2023-01-21T10:33:03.156Z,51.90
2023-01-21T10:35:55.815Z,47.80
2023-01-21T10:38:35.081Z,50.80
2023-01-21T10:41:09.606Z,49.00
2023-01-21T10:43:44.765Z,50.77
2023-01-21T10:46:21.725Z,48.43
2023-01-21T10:48:57.949Z,48.90
2023-01-21T10:51:29.782Z,46.03
2023-01-21T10:54:02.047Z,51.97
2023-01-21T10:56:40.403Z,52.17
2023-01-21T10:59:13.008Z,48.73
2023-01-21T11:01:44.659Z,53.00
2023-01-21T11:04:17.723Z,49.87
2023-01-21T11:06:50.111Z,48.00
2023-01-21T11:09:18.123Z,53.30
2023-01-21T11:11:46.508Z,53.33
2023-01-21T11:14:14.427Z,51.70
2023-01-21T11:16:45.050Z,49.73
2023-01-21T11:19:16.868Z,46.33
2023-01-21T11:22:00.212Z,49.27
2023-01-21T11:24:29.715Z,49.93
2023-01-21T11:27:00.371Z,47.73
2023-01-21T11:29:39.983Z,48.23
2023-01-21T11:32:19.464Z,50.73
2023-01-21T11:34:51.120Z,49.73
2023-01-21T11:37:24.854Z,45.97
2023-01-21T11:39:55.984Z,44.60
2023-01-21T11:42:25.345Z,45.10
2023-01-21T11:44:55.689Z,42.77
2023-01-21T11:47:32.721Z,45.07
2023-01-21T11:50:16.011Z,42.40
2023-01-21T11:52:44.179Z,46.20
2023-01-21T11:55:30.112Z,39.47
2023-01-21T11:58:05.623Z,41.10
2023-01-21T12:00:41.279Z,39.40
2023-01-21T12:03:18.632Z,37.30
2023-01-21T12:05:50.759Z,37.10
2023-01-21T12:08:23.092Z,35.20
2023-01-21T12:10:53.149Z,39.70
2023-01-21T12:13:24.770Z,38.90
2023-01-21T12:16:17.965Z,38.20
2023-01-21T12:19:29.751Z,35.80
2023-01-21T12:22:22.345Z,39.13
2023-01-21T12:25:05.009Z,37.60
2023-01-21T12:27:44.898Z,38.00
2023-01-21T12:30:24.989Z,39.07
2023-01-21T12:32:58.578Z,36.87
2023-01-21T12:35:30.813Z,37.33
2023-01-21T12:38:07.260Z,33.27
2023-01-21T12:40:41.035Z,39.97
2023-01-21T12:43:16.255Z,36.67
2023-01-21T12:45:50.458Z,34.60
2023-01-21T12:48:26.118Z,32.77
2023-01-21T12:50:59.208Z,32.23
2023-01-21T12:53:36.067Z,29.37
2023-01-21T12:56:22.177Z,30.47
2023-01-21T12:58:56.691Z,28.77
2023-01-21T13:01:46.260Z,31.87
2023-01-21T13:04:31.096Z,27.23
2023-01-21T13:07:04.366Z,28.70
2023-01-21T13:09:40.669Z,29.23
2023-01-21T13:12:16.462Z,29.07
2023-01-21T13:14:48.470Z,30.87
2023-01-21T13:17:20.331Z,27.73
2023-01-21T13:19:48.411Z,30.57
2023-01-21T13:22:28.476Z,28.03
2023-01-21T13:25:20.225Z,30.57
2023-01-21T13:27:55.035Z,31.13
2023-01-21T13:30:31.595Z,28.67
2023-01-21T13:33:11.933Z,31.77
2023-01-21T13:35:50.886Z,29.13
2023-01-21T13:38:28.516Z,27.70
2023-01-21T13:41:07.959Z,28.00
2023-01-21T13:43:54.282Z,31.27
2023-01-21T13:46:41.393Z,31.87
2023-01-21T13:49:35.404Z,28.77
2023-01-21T13:52:11.611Z,30.37
2023-01-21T13:54:54.480Z,31.80
2023-01-21T13:57:43.762Z,32.80
2023-01-21T14:00:17.184Z,30.57
2023-01-21T14:02:52.300Z,29.47
2023-01-21T14:05:25.882Z,32.13
2023-01-21T14:07:58.582Z,28.97
2023-01-21T14:10:31.964Z,27.57
2023-01-21T14:13:30.927Z,28.33
2023-01-21T14:16:20.728Z,28.17
2023-01-21T14:19:09.635Z,28.53
2023-01-21T14:22:02.949Z,26.70
2023-01-21T14:24:57.730Z,27.87
2023-01-21T14:27:33.152Z,26.33
2023-01-21T14:30:11.132Z,25.27
2023-01-21T14:32:46.037Z,25.77
2023-01-21T14:35:23.755Z,25.00
2023-01-21T14:38:04.762Z,20.67
2023-01-21T14:40:37.161Z,21.53
2023-01-21T14:43:05.126Z,18.63
2023-01-21T14:45:54.403Z,19.47
2023-01-21T14:48:31.180Z,25.67
2023-01-21T14:51:12.787Z,23.90
2023-01-21T14:53:48.058Z,18.77
2023-01-21T14:56:24.202Z,24.30
2023-01-21T14:58:55.468Z,21.57
2023-01-21T15:01:49.620Z,18.33
2023-01-21T15:04:25.780Z,19.43
2023-01-21T15:06:57.712Z,20.87
2023-01-21T15:09:29.595Z,18.53
2023-01-21T15:12:01.676Z,22.40
2023-01-21T15:14:32.513Z,19.07
2023-01-21T15:17:02.060Z,21.40
2023-01-21T15:19:32.799Z,21.70
2023-01-21T15:22:40.953Z,21.47
2023-01-21T15:25:31.554Z,22.03
2023-01-21T15:28:40.623Z,24.40
2023-01-21T15:31:11.438Z,20.93
2023-01-21T15:33:45.916Z,21.60
2023-01-21T15:36:24.446Z,22.33
2023-01-21T15:38:54.071Z,20.20
2023-01-21T15:41:29.621Z,21.33
2023-01-21T15:44:09.471Z,23.60
2023-01-21T15:46:48.483Z,21.63
2023-01-21T15:49:34.862Z,21.90
2023-01-21T15:52:18.359Z,20.97
2023-01-21T15:54:55.382Z,24.50
2023-01-21T15:57:37.672Z,21.33
2023-01-21T16:00:22.822Z,21.40
2023-01-21T16:02:56.363Z,21.27
2023-01-21T16:05:35.203Z,21.83
2023-01-21T16:08:15.528Z,21.93
2023-01-21T16:10:52.400Z,24.43
2023-01-21T16:13:31.042Z,22.57
2023-01-21T16:16:10.645Z,24.77
2023-01-21T16:18:48.294Z,22.23
2023-01-21T16:21:21.145Z,21.97
2023-01-21T16:23:51.715Z,24.27
2023-01-21T16:26:27.238Z,25.20
2023-01-21T16:28:55.370Z,21.83
2023-01-21T16:31:23.739Z,22.60
2023-01-21T16:33:53.702Z,24.23
2023-01-21T16:36:23.161Z,27.07
2023-01-21T16:38:51.122Z,21.90
2023-01-21T16:41:28.449Z,18.90
2023-01-21T16:44:00.303Z,19.53
2023-01-21T16:46:34.441Z,19.43
2023-01-21T16:49:04.846Z,21.00
2023-01-21T16:51:36.167Z,16.63
2023-01-21T16:54:23.679Z,19.73
2023-01-21T16:56:54.388Z,17.90
2023-01-21T16:59:25.788Z,18.27
2023-01-21T17:01:54.545Z,16.63
2023-01-21T17:04:22.902Z,21.47
2023-01-21T17:06:54.026Z,18.30
2023-01-21T17:09:27.857Z,19.10
2023-01-21T17:11:56.928Z,19.43
2023-01-21T17:14:28.751Z,18.77
2023-01-21T17:16:58.776Z,18.17
2023-01-21T17:19:31.274Z,22.37
2023-01-21T17:22:02.714Z,26.90
2023-01-21T17:24:34.199Z,59.70
2023-01-21T17:27:05.613Z,23.97
2023-01-21T17:29:35.357Z,18.03
2023-01-21T17:32:05.899Z,16.87
2023-01-21T17:34:35.967Z,18.43
2023-01-21T17:37:40.138Z,18.10
2023-01-21T17:40:25.124Z,19.30
2023-01-21T17:42:53.460Z,19.07
2023-01-21T17:45:30.218Z,19.73
2023-01-21T17:48:10.984Z,18.10
2023-01-21T17:50:46.773Z,21.30
2023-01-21T17:53:23.339Z,18.43
2023-01-21T17:56:02.299Z,21.57
2023-01-21T17:58:49.441Z,21.37
2023-01-21T18:01:17.944Z,24.43
2023-01-21T18:03:45.837Z,24.20
2023-01-21T18:06:19.919Z,23.77
2023-01-21T18:08:50.536Z,24.77
2023-01-21T18:11:18.833Z,26.33
2023-01-21T18:13:46.903Z,23.13
2023-01-21T18:16:15.096Z,23.67
2023-01-21T18:18:43.086Z,24.37
2023-01-21T18:21:18.972Z,17.67
2023-01-21T18:23:46.982Z,24.73
2023-01-21T18:26:25.912Z,22.57
2023-01-21T18:28:53.959Z,27.93
2023-01-21T18:31:22.686Z,25.67
2023-01-21T18:33:50.728Z,25.23
2023-01-21T18:36:18.606Z,26.33
2023-01-21T18:38:46.566Z,26.67
2023-01-21T18:41:14.750Z,25.17
2023-01-21T18:43:44.190Z,25.30
2023-01-21T18:46:13.647Z,26.77
2023-01-21T18:48:43.059Z,26.53
2023-01-21T18:51:11.285Z,28.13
2023-01-21T18:53:39.400Z,29.07
2023-01-21T18:56:18.436Z,25.37
2023-01-21T18:58:47.633Z,29.37
2023-01-21T19:01:22.946Z,26.87
2023-01-21T19:03:54.129Z,28.73
2023-01-21T19:06:23.857Z,26.67
2023-01-21T19:08:51.837Z,27.07
2023-01-21T19:11:19.830Z,27.80
2023-01-21T19:13:49.025Z,25.47
2023-01-21T19:16:18.901Z,24.50
2023-01-21T19:18:47.572Z,28.53
2023-01-21T19:21:15.736Z,25.47
2023-01-21T19:23:43.860Z,27.57
2023-01-21T19:26:14.482Z,27.13
2023-01-21T19:28:42.892Z,33.57
2023-01-21T19:31:12.318Z,29.63
2023-01-21T19:33:42.856Z,32.10
2023-01-21T19:36:16.100Z,33.73
2023-01-21T19:38:52.380Z,34.63
2023-01-21T19:41:20.217Z,33.07
2023-01-21T19:43:48.144Z,34.40
2023-01-21T19:46:18.482Z,36.00
2023-01-21T19:48:50.091Z,38.60
2023-01-21T19:51:18.123Z,37.47
2023-01-21T19:53:46.219Z,34.13
2023-01-21T19:56:17.148Z,40.53
2023-01-21T19:58:45.483Z,37.00
2023-01-21T20:01:13.534Z,38.83
2023-01-21T20:03:58.497Z,40.20
2023-01-21T20:06:28.876Z,40.93
2023-01-21T20:08:56.841Z,42.70
2023-01-21T20:11:24.816Z,40.93
2023-01-21T20:13:52.651Z,41.07
2023-01-21T20:16:21.685Z,40.80
2023-01-21T20:18:51.485Z,42.20
2023-01-21T20:21:19.600Z,41.27
2023-01-21T20:23:47.973Z,41.47
2023-01-21T20:26:20.209Z,41.97
2023-01-21T20:28:51.503Z,44.60
2023-01-21T20:31:20.167Z,40.97
2023-01-21T20:33:48.121Z,43.97
2023-01-21T20:36:21.034Z,41.57
2023-01-21T20:38:49.491Z,41.27
2023-01-21T20:41:18.160Z,37.63
2023-01-21T20:43:46.024Z,40.43
2023-01-21T20:46:16.611Z,38.53
2023-01-21T20:48:45.270Z,43.63
2023-01-21T20:51:13.524Z,44.03
2023-01-21T20:53:43.115Z,40.00
2023-01-21T20:56:18.659Z,38.40
2023-01-21T20:58:47.867Z,39.93
2023-01-21T21:01:17.476Z,40.57
2023-01-21T21:03:45.735Z,41.33
2023-01-21T21:06:15.221Z,39.10
2023-01-21T21:08:45.225Z,34.30
2023-01-21T21:11:15.143Z,41.97
2023-01-21T21:13:43.293Z,39.73
2023-01-21T21:16:18.853Z,41.53
2023-01-21T21:18:47.096Z,41.87
2023-01-21T21:21:15.174Z,38.30
2023-01-21T21:23:46.676Z,41.47
2023-01-21T21:26:20.889Z,37.63
2023-01-21T21:28:48.942Z,39.43
2023-01-21T21:31:18.784Z,36.80
2023-01-21T21:33:47.279Z,37.77
2023-01-21T21:36:15.794Z,43.30
2023-01-21T21:38:45.931Z,35.40
2023-01-21T21:41:33.940Z,40.80
2023-01-21T21:44:02.021Z,39.73
2023-01-21T21:46:47.247Z,46.97
2023-01-21T21:49:15.291Z,39.37
2023-01-21T21:51:45.568Z,38.13
2023-01-21T21:54:18.182Z,36.70
2023-01-21T21:56:46.332Z,38.30
2023-01-21T21:59:14.894Z,37.57
2023-01-21T22:01:43.834Z,38.70
2023-01-21T22:04:11.863Z,40.33
2023-01-21T22:06:40.061Z,36.60
2023-01-21T22:09:08.982Z,38.53
2023-01-21T22:11:38.391Z,38.93
2023-01-21T22:14:06.243Z,38.33
2023-01-21T22:16:34.945Z,40.03
2023-01-21T22:19:02.939Z,39.17
2023-01-21T22:21:33.245Z,37.67
2023-01-21T22:24:02.558Z,36.73
2023-01-21T22:26:30.667Z,39.33
2023-01-21T22:29:00.113Z,34.93
2023-01-21T22:31:29.729Z,38.47
2023-01-21T22:33:59.045Z,41.17
2023-01-21T22:36:28.755Z,38.27
2023-01-21T22:38:56.865Z,38.67
2023-01-21T22:41:26.196Z,40.40
2023-01-21T22:43:55.087Z,37.87
2023-01-21T22:46:26.082Z,39.30
2023-01-21T22:48:54.939Z,40.30
2023-01-21T22:51:23.475Z,36.50
2023-01-21T22:53:52.282Z,40.77
2023-01-21T22:56:31.515Z,37.27
2023-01-21T22:59:08.082Z,38.87
2023-01-21T23:01:37.429Z,37.10
2023-01-21T23:04:05.518Z,41.77
2023-01-21T23:06:33.387Z,40.80
2023-01-21T23:09:01.476Z,42.73
2023-01-21T23:11:29.805Z,37.00
2023-01-21T23:13:57.719Z,35.97
2023-01-21T23:16:25.568Z,33.07
2023-01-21T23:18:54.977Z,39.63
2023-01-21T23:21:23.311Z,36.50
2023-01-21T23:23:51.741Z,35.23
2023-01-21T23:26:20.732Z,35.77
2023-01-21T23:28:48.729Z,36.93
2023-01-21T23:31:18.184Z,33.90
2023-01-21T23:33:50.289Z,35.10
2023-01-21T23:36:20.316Z,36.33
2023-01-21T23:38:48.472Z,36.90
2023-01-21T23:41:19.787Z,34.67
2023-01-21T23:43:47.933Z,37.63
2023-01-21T23:46:19.325Z,57.27
2023-01-21T23:48:47.534Z,38.27
2023-01-21T23:51:17.562Z,34.97
2023-01-21T23:53:47.689Z,37.17
2023-01-21T23:56:17.488Z,32.13
2023-01-21T23:58:45.388Z,36.83
